East Harling, United Kingdom
Current Conditions -  °F | °C
As of 6:49 AM on Tuesday 21 Oct 2014 (Local Time) from EGUL Reporting Station
Overcast Overcast  
Wind Chill: 55°   Ceiling: 2700
Heat Index: 55°   Visibility: 6mi
Dew Point: 55°   Wind: 20mph
Humidity: 100%   Direction: 210°SSW
Pressure: 29.47"   Gusts: 28mph
Location:  52.44°N, 0.93°E
Report Text: EGUL 210549Z AUTO 21017G24KT 9999 SCT019 BKN027 OVC033 13/13 A2947 RMK AO2 CIG 019V027
Loading
Personal Weather Stations






























Interactive Weather Map
Tropical Storm Tracking
New forecast layout! Learn more

10-Day Weather Forecast

Advertisements
Track Severe Weather on mobile